createdAt,value
2023-02-11T00:00:40.231Z,34.58
2023-02-11T00:01:42.046Z,33.30
2023-02-11T00:02:47.834Z,34.05
2023-02-11T00:03:49.921Z,34.33
2023-02-11T00:04:52.755Z,33.75
2023-02-11T00:05:59.390Z,31.95
2023-02-11T00:07:02.149Z,32.28
2023-02-11T00:08:04.349Z,33.90
2023-02-11T00:09:07.880Z,32.25
2023-02-11T00:10:11.144Z,33.67
2023-02-11T00:11:15.297Z,32.83
2023-02-11T00:12:19.535Z,34.22
2023-02-11T00:13:22.657Z,33.70
2023-02-11T00:14:25.407Z,34.00
2023-02-11T00:15:27.403Z,32.80
2023-02-11T00:16:31.872Z,35.08
2023-02-11T00:17:33.718Z,34.00
2023-02-11T00:18:37.283Z,34.83
2023-02-11T00:19:39.920Z,32.47
2023-02-11T00:20:43.230Z,34.03
2023-02-11T00:21:45.084Z,33.75
2023-02-11T00:22:47.843Z,37.60
2023-02-11T00:23:50.053Z,35.80
2023-02-11T00:24:52.868Z,34.92
2023-02-11T00:26:11.934Z,35.00
2023-02-11T00:27:15.152Z,33.50
2023-02-11T00:28:18.395Z,33.50
2023-02-11T00:29:20.224Z,34.08
2023-02-11T00:30:23.089Z,32.22
2023-02-11T00:31:25.860Z,31.52
2023-02-11T00:32:28.747Z,33.80
2023-02-11T00:33:30.592Z,33.83
2023-02-11T00:34:33.880Z,32.33
2023-02-11T00:35:37.713Z,33.08
2023-02-11T00:36:40.641Z,33.10
2023-02-11T00:37:43.010Z,35.22
2023-02-11T00:38:47.284Z,34.65
2023-02-11T00:39:50.191Z,32.88
2023-02-11T00:40:53.024Z,33.40
2023-02-11T00:41:56.332Z,34.15
2023-02-11T00:42:59.113Z,33.03
2023-02-11T00:44:01.549Z,33.53
2023-02-11T00:45:04.765Z,32.97
2023-02-11T00:46:06.902Z,32.88
2023-02-11T00:47:09.734Z,33.28
2023-02-11T00:48:11.518Z,32.60
2023-02-11T00:49:14.418Z,33.25
2023-02-11T00:50:17.122Z,33.80
2023-02-11T00:51:19.880Z,33.33
2023-02-11T00:52:21.639Z,33.17
2023-02-11T00:53:24.828Z,33.10
2023-02-11T00:54:29.898Z,30.60
2023-02-11T00:55:33.154Z,33.75
2023-02-11T00:56:35.591Z,32.67
2023-02-11T00:57:39.708Z,31.90
2023-02-11T00:58:41.495Z,32.40
2023-02-11T00:59:44.402Z,32.97
2023-02-11T01:00:46.209Z,32.33
2023-02-11T01:01:49.946Z,31.70
2023-02-11T01:02:52.233Z,33.65
2023-02-11T01:03:54.986Z,31.30
2023-02-11T01:04:59.780Z,31.60
2023-02-11T01:06:03.145Z,30.77
2023-02-11T01:07:04.970Z,32.13
2023-02-11T01:08:08.066Z,31.70
2023-02-11T01:09:09.916Z,32.78
2023-02-11T01:10:13.083Z,31.15
2023-02-11T01:11:17.010Z,29.65
2023-02-11T01:12:21.053Z,30.70
2023-02-11T01:13:24.849Z,32.08
2023-02-11T01:14:30.086Z,31.95
2023-02-11T01:15:33.237Z,31.55
2023-02-11T01:16:36.536Z,32.58
2023-02-11T01:17:38.360Z,30.50
2023-02-11T01:18:41.873Z,29.20
2023-02-11T01:19:44.791Z,31.00
2023-02-11T01:20:47.592Z,31.10
2023-02-11T01:21:50.473Z,31.70
2023-02-11T01:22:52.300Z,29.02
2023-02-11T01:23:55.033Z,29.88
2023-02-11T01:24:56.877Z,29.60
2023-02-11T01:25:59.801Z,29.80
2023-02-11T01:27:04.198Z,28.83
2023-02-11T01:28:07.093Z,31.05
2023-02-11T01:29:10.312Z,30.02
2023-02-11T01:30:14.512Z,27.17
2023-02-11T01:31:16.432Z,28.45
2023-02-11T01:32:19.296Z,29.05
2023-02-11T01:33:21.894Z,27.70
2023-02-11T01:34:24.732Z,28.50
2023-02-11T01:35:26.496Z,29.00
2023-02-11T01:36:29.414Z,26.63
2023-02-11T01:37:33.101Z,29.90
2023-02-11T01:38:36.270Z,30.23
2023-02-11T01:39:38.156Z,28.65
2023-02-11T01:40:41.081Z,30.67
2023-02-11T01:41:43.003Z,32.83
2023-02-11T01:42:48.339Z,30.15
2023-02-11T01:43:51.337Z,27.45
2023-02-11T01:44:56.242Z,30.48
2023-02-11T01:46:05.479Z,29.33
2023-02-11T01:47:08.387Z,27.08
2023-02-11T01:48:13.779Z,27.90
2023-02-11T01:49:20.107Z,27.15
2023-02-11T01:50:24.277Z,29.17
2023-02-11T01:51:28.989Z,28.38
2023-02-11T01:52:36.433Z,28.25
2023-02-11T01:53:57.605Z,28.20
2023-02-11T01:55:19.419Z,28.85
2023-02-11T01:56:39.992Z,29.33
2023-02-11T01:57:46.243Z,27.75
2023-02-11T01:58:50.217Z,29.00
2023-02-11T02:00:16.594Z,27.90
2023-02-11T02:01:22.605Z,29.75
2023-02-11T02:02:32.430Z,27.98
2023-02-11T02:03:36.817Z,27.52
2023-02-11T02:04:43.514Z,28.25
2023-02-11T02:05:49.700Z,28.95
2023-02-11T02:06:57.317Z,28.02
2023-02-11T02:08:04.157Z,27.73
2023-02-11T02:09:09.754Z,28.38
2023-02-11T02:10:15.024Z,28.58
2023-02-11T02:11:17.967Z,28.63
2023-02-11T02:12:20.130Z,30.08
2023-02-11T02:13:23.609Z,28.10
2023-02-11T02:14:28.884Z,30.42
2023-02-11T02:15:34.717Z,27.80
2023-02-11T02:16:38.316Z,29.33
2023-02-11T02:17:46.351Z,28.52
2023-02-11T02:18:55.195Z,27.67
2023-02-11T02:20:23.692Z,29.23
2023-02-11T02:22:17.547Z,27.98
2023-02-11T02:23:47.601Z,26.63
2023-02-11T02:25:00.705Z,29.30
2023-02-11T02:26:26.962Z,28.55
2023-02-11T02:27:47.222Z,28.73
2023-02-11T02:29:19.508Z,28.35
2023-02-11T02:30:51.114Z,29.25
2023-02-11T02:32:22.531Z,25.50
2023-02-11T02:33:31.903Z,26.73
2023-02-11T02:34:38.164Z,27.05
2023-02-11T02:35:44.170Z,26.70
2023-02-11T02:36:50.617Z,28.15
2023-02-11T02:37:58.292Z,28.65
2023-02-11T02:39:06.020Z,28.50
2023-02-11T02:40:12.513Z,29.83
2023-02-11T02:41:15.882Z,28.08
2023-02-11T02:42:19.370Z,26.42
2023-02-11T02:43:22.137Z,30.13
2023-02-11T02:44:25.648Z,28.60
2023-02-11T02:45:27.611Z,27.63
2023-02-11T02:46:32.316Z,28.85
2023-02-11T02:47:34.168Z,26.90
2023-02-11T02:48:38.397Z,29.15
2023-02-11T02:49:40.299Z,27.02
2023-02-11T02:50:43.234Z,28.67
2023-02-11T02:52:05.394Z,27.15
2023-02-11T02:53:15.717Z,25.63
2023-02-11T02:54:35.789Z,25.73
2023-02-11T02:55:44.577Z,26.80
2023-02-11T02:56:49.787Z,28.02
2023-02-11T02:58:02.814Z,27.90
2023-02-11T02:59:38.279Z,24.95
2023-02-11T03:00:44.430Z,26.13
2023-02-11T03:01:52.477Z,27.08
2023-02-11T03:03:08.880Z,26.42
2023-02-11T03:04:19.902Z,25.55
2023-02-11T03:05:26.033Z,25.40
2023-02-11T03:06:32.680Z,24.63
2023-02-11T03:07:39.891Z,27.35
2023-02-11T03:08:45.418Z,26.50
2023-02-11T03:09:51.047Z,27.23
2023-02-11T03:10:55.476Z,25.80
2023-02-11T03:11:57.389Z,26.55
2023-02-11T03:13:00.264Z,26.83
2023-02-11T03:14:03.925Z,25.30
2023-02-11T03:15:08.202Z,25.58
2023-02-11T03:16:13.795Z,25.58
2023-02-11T03:17:17.800Z,26.42
2023-02-11T03:18:21.938Z,27.27
2023-02-11T03:19:30.006Z,27.20
2023-02-11T03:20:33.442Z,25.92
2023-02-11T03:21:38.909Z,26.83
2023-02-11T03:22:45.106Z,25.73
2023-02-11T03:23:51.666Z,26.83
2023-02-11T03:24:53.943Z,25.63
2023-02-11T03:25:59.695Z,27.02
2023-02-11T03:27:04.842Z,25.55
2023-02-11T03:28:11.609Z,25.50
2023-02-11T03:29:17.149Z,25.23
2023-02-11T03:30:21.974Z,25.73
2023-02-11T03:31:28.770Z,25.90
2023-02-11T03:32:34.964Z,25.35
2023-02-11T03:33:42.015Z,24.75
2023-02-11T03:34:48.821Z,23.15
2023-02-11T03:35:53.541Z,25.17
2023-02-11T03:36:58.652Z,25.88
2023-02-11T03:38:02.641Z,25.58
2023-02-11T03:39:06.966Z,24.77
2023-02-11T03:40:12.117Z,26.10
2023-02-11T03:41:16.697Z,25.05
2023-02-11T03:42:18.982Z,25.48
2023-02-11T03:43:24.110Z,23.33
2023-02-11T03:44:30.878Z,25.85
2023-02-11T03:45:34.019Z,24.77
2023-02-11T03:46:38.091Z,25.02
2023-02-11T03:47:45.088Z,23.20
2023-02-11T03:48:49.631Z,25.25
2023-02-11T03:49:54.943Z,24.75
2023-02-11T03:50:58.806Z,23.42
2023-02-11T03:52:02.540Z,24.95
2023-02-11T03:53:05.057Z,24.02
2023-02-11T03:54:14.780Z,23.60
2023-02-11T03:55:18.971Z,23.17
2023-02-11T03:56:24.785Z,23.67
2023-02-11T03:57:26.577Z,24.73
2023-02-11T03:58:29.357Z,24.48
2023-02-11T03:59:31.201Z,24.65
2023-02-11T04:00:36.645Z,24.80
2023-02-11T04:01:38.491Z,23.42
2023-02-11T04:02:41.997Z,23.48
2023-02-11T04:03:43.810Z,23.67
2023-02-11T04:04:46.792Z,24.40
2023-02-11T04:05:50.518Z,24.20
2023-02-11T04:06:53.451Z,24.60
2023-02-11T04:07:55.252Z,24.55
2023-02-11T04:08:58.222Z,23.75
2023-02-11T04:10:00.249Z,25.42
2023-02-11T04:11:03.295Z,23.42
2023-02-11T04:12:05.462Z,24.00
2023-02-11T04:13:08.306Z,22.17
2023-02-11T04:14:10.103Z,24.15
2023-02-11T04:15:13.259Z,23.45
2023-02-11T04:16:15.160Z,24.00
2023-02-11T04:17:17.952Z,23.73
2023-02-11T04:18:19.818Z,23.45
2023-02-11T04:19:22.557Z,22.75
2023-02-11T04:20:24.427Z,23.75
2023-02-11T04:21:29.349Z,25.17
2023-02-11T04:22:31.320Z,22.85
2023-02-11T04:23:34.104Z,22.42
2023-02-11T04:24:36.394Z,24.08
2023-02-11T04:25:39.121Z,23.05
2023-02-11T04:26:40.965Z,24.77
2023-02-11T04:27:44.128Z,24.40
2023-02-11T04:28:45.951Z,20.80
2023-02-11T04:29:48.670Z,23.42
2023-02-11T04:30:51.095Z,22.60
2023-02-11T04:31:53.927Z,23.58
2023-02-11T04:32:55.712Z,22.60
2023-02-11T04:33:58.674Z,24.77
2023-02-11T04:35:00.426Z,22.63
2023-02-11T04:36:04.650Z,23.88
2023-02-11T04:37:08.974Z,22.98
2023-02-11T04:38:10.750Z,23.77
2023-02-11T04:39:13.578Z,23.48
2023-02-11T04:40:15.473Z,22.83
2023-02-11T04:41:18.256Z,22.63
2023-02-11T04:42:20.198Z,23.80
2023-02-11T04:43:23.149Z,22.55
2023-02-11T04:44:24.905Z,23.63
2023-02-11T04:45:27.630Z,23.83
2023-02-11T04:46:29.697Z,21.52
2023-02-11T04:47:32.629Z,23.95
2023-02-11T04:48:34.875Z,22.45
2023-02-11T04:49:37.888Z,23.05
2023-02-11T04:50:41.517Z,21.70
2023-02-11T04:51:47.603Z,22.58
2023-02-11T04:52:52.284Z,23.60
2023-02-11T04:53:55.031Z,22.80
2023-02-11T04:54:56.776Z,22.77
2023-02-11T04:55:59.625Z,27.33
2023-02-11T04:57:01.484Z,22.45
2023-02-11T04:58:04.653Z,22.55
2023-02-11T04:59:07.201Z,23.75
2023-02-11T05:00:11.377Z,24.00
2023-02-11T05:01:15.158Z,24.30
2023-02-11T05:02:18.041Z,22.73
2023-02-11T05:03:19.887Z,24.65
2023-02-11T05:04:22.917Z,25.55
2023-02-11T05:05:24.874Z,23.60
2023-02-11T05:06:27.643Z,22.48
2023-02-11T05:07:29.434Z,24.33
2023-02-11T05:08:33.876Z,22.98
2023-02-11T05:09:35.659Z,22.33
2023-02-11T05:10:38.662Z,23.55
2023-02-11T05:11:40.803Z,21.77
2023-02-11T05:12:43.582Z,22.17
2023-02-11T05:13:45.391Z,21.67
2023-02-11T05:14:48.493Z,22.17
2023-02-11T05:15:50.952Z,21.25
2023-02-11T05:16:54.235Z,23.00
2023-02-11T05:17:56.341Z,22.50
2023-02-11T05:18:59.165Z,25.67
2023-02-11T05:20:00.933Z,22.80
2023-02-11T05:21:07.500Z,23.15
2023-02-11T05:22:09.306Z,22.13
2023-02-11T05:23:12.644Z,20.38
2023-02-11T05:24:15.844Z,20.60
2023-02-11T05:25:18.810Z,21.33
2023-02-11T05:26:20.666Z,20.92
2023-02-11T05:27:42.432Z,21.00
2023-02-11T05:28:45.070Z,21.45
2023-02-11T05:29:47.872Z,21.55
2023-02-11T05:30:49.708Z,21.92
2023-02-11T05:31:52.603Z,21.27
2023-02-11T05:32:54.594Z,20.60
2023-02-11T05:33:57.398Z,20.55
2023-02-11T05:34:59.244Z,21.05
2023-02-11T05:36:03.501Z,22.10
2023-02-11T05:37:05.352Z,22.50
2023-02-11T05:38:27.070Z,20.63
2023-02-11T05:39:30.495Z,20.67
2023-02-11T05:40:33.469Z,20.00
2023-02-11T05:41:35.230Z,19.35
2023-02-11T05:42:38.134Z,18.75
2023-02-11T05:43:40.013Z,19.27
2023-02-11T05:44:42.761Z,20.38
2023-02-11T05:45:45.049Z,21.05
2023-02-11T05:46:49.100Z,19.20
2023-02-11T05:47:50.878Z,20.20
2023-02-11T05:48:53.670Z,20.58
2023-02-11T05:49:55.449Z,19.77
2023-02-11T05:50:58.221Z,19.80
2023-02-11T05:52:00.133Z,19.63
2023-02-11T05:53:02.870Z,20.05
2023-02-11T05:54:05.132Z,19.67
2023-02-11T05:55:09.362Z,20.20
2023-02-11T05:56:11.762Z,19.17
2023-02-11T05:57:14.946Z,20.27
2023-02-11T05:58:16.793Z,19.75
2023-02-11T05:59:19.518Z,21.05
2023-02-11T06:00:21.436Z,19.90
2023-02-11T06:01:24.325Z,20.08
2023-02-11T06:02:26.135Z,21.15
2023-02-11T06:03:28.886Z,19.48
2023-02-11T06:04:31.139Z,21.42
2023-02-11T06:05:34.158Z,19.98
2023-02-11T06:06:36.365Z,19.98
2023-02-11T06:07:39.192Z,19.70
2023-02-11T06:08:41.130Z,19.17
2023-02-11T06:09:43.981Z,19.92
2023-02-11T06:10:47.191Z,19.58
2023-02-11T06:11:50.327Z,18.73
2023-02-11T06:12:52.129Z,18.70
2023-02-11T06:13:54.934Z,19.15
2023-02-11T06:14:56.770Z,18.33
2023-02-11T06:16:00.445Z,19.30
2023-02-11T06:17:02.720Z,18.35
2023-02-11T06:18:05.965Z,17.63
2023-02-11T06:19:07.732Z,19.20
2023-02-11T06:20:11.726Z,18.73
2023-02-11T06:21:13.691Z,18.42
2023-02-11T06:22:16.454Z,19.83
2023-02-11T06:23:18.491Z,20.20
2023-02-11T06:24:45.191Z,19.95
2023-02-11T06:25:43.961Z,16.90
2023-02-11T06:26:47.174Z,18.38
2023-02-11T06:27:49.927Z,17.90
2023-02-11T06:28:51.890Z,18.73
2023-02-11T06:29:54.690Z,18.45
2023-02-11T06:30:56.519Z,19.88
2023-02-11T06:31:59.489Z,19.65
2023-02-11T06:33:01.556Z,19.35
2023-02-11T06:34:04.980Z,18.90
2023-02-11T06:35:10.737Z,19.52
2023-02-11T06:36:17.066Z,18.55
2023-02-11T06:37:18.829Z,19.17
2023-02-11T06:38:21.614Z,18.23
2023-02-11T06:39:23.463Z,19.27
2023-02-11T06:40:26.194Z,19.58
2023-02-11T06:41:28.106Z,18.77
2023-02-11T06:42:32.363Z,18.50
2023-02-11T06:43:34.161Z,17.95
2023-02-11T06:44:37.094Z,19.75
2023-02-11T06:45:39.327Z,20.40
2023-02-11T06:46:42.159Z,18.30
2023-02-11T06:47:43.994Z,18.70
2023-02-11T06:48:47.478Z,18.70
2023-02-11T06:49:49.262Z,17.98
2023-02-11T06:50:51.983Z,17.75
2023-02-11T06:51:53.826Z,19.08
2023-02-11T06:52:56.550Z,18.90
2023-02-11T06:53:58.350Z,17.70
2023-02-11T06:55:01.231Z,18.30
2023-02-11T06:56:03.987Z,16.88
2023-02-11T06:57:06.705Z,16.75
2023-02-11T06:58:10.892Z,17.02
2023-02-11T06:59:15.465Z,18.40
2023-02-11T07:00:18.990Z,16.63
2023-02-11T07:01:21.658Z,17.35
2023-02-11T07:02:24.476Z,17.15
2023-02-11T07:03:26.552Z,17.88
2023-02-11T07:04:29.510Z,18.70
2023-02-11T07:05:31.429Z,18.33
2023-02-11T07:06:34.185Z,18.65
2023-02-11T07:07:37.092Z,18.58
2023-02-11T07:08:40.489Z,19.45
2023-02-11T07:09:42.752Z,16.95
2023-02-11T07:10:45.620Z,17.13
2023-02-11T07:11:47.404Z,17.10
2023-02-11T07:12:50.149Z,16.85
2023-02-11T07:14:13.332Z,17.10
2023-02-11T07:15:16.351Z,16.88
2023-02-11T07:16:19.118Z,17.38
2023-02-11T07:17:21.940Z,18.13
2023-02-11T07:18:23.704Z,17.63
2023-02-11T07:19:26.450Z,16.40
2023-02-11T07:20:28.718Z,17.38
2023-02-11T07:21:31.561Z,18.25
2023-02-11T07:22:34.296Z,16.65
2023-02-11T07:23:37.831Z,17.13
2023-02-11T07:24:39.606Z,17.70
2023-02-11T07:25:42.746Z,19.15
2023-02-11T07:26:45.002Z,17.33
2023-02-11T07:27:47.800Z,19.05
2023-02-11T07:28:50.168Z,19.95
2023-02-11T07:29:54.354Z,18.20
2023-02-11T07:30:56.321Z,16.85
2023-02-11T07:31:59.092Z,17.63
2023-02-11T07:33:01.024Z,17.85
2023-02-11T07:34:03.795Z,17.88
2023-02-11T07:35:06.146Z,18.48
2023-02-11T07:36:10.566Z,17.20
2023-02-11T07:37:12.349Z,18.42
2023-02-11T07:38:15.145Z,18.67
2023-02-11T07:39:17.952Z,18.67
2023-02-11T07:40:19.927Z,18.92
2023-02-11T07:41:23.925Z,17.50
2023-02-11T07:42:26.124Z,16.73
2023-02-11T07:43:28.870Z,17.17
2023-02-11T07:44:30.906Z,17.00
2023-02-11T07:45:35.101Z,18.02
2023-02-11T07:46:36.998Z,18.23
2023-02-11T07:47:39.757Z,17.67
2023-02-11T07:48:41.871Z,17.08
2023-02-11T07:49:44.605Z,16.80
2023-02-11T07:50:46.374Z,16.73
2023-02-11T07:52:07.947Z,16.73
2023-02-11T07:53:09.787Z,16.85
2023-02-11T07:54:12.889Z,17.73
2023-02-11T07:55:14.940Z,16.95
2023-02-11T07:56:19.255Z,17.63
2023-02-11T07:57:21.038Z,16.00
2023-02-11T07:58:23.805Z,17.85
2023-02-11T07:59:25.591Z,17.70
2023-02-11T08:00:28.392Z,16.55
2023-02-11T08:01:32.825Z,18.00
2023-02-11T08:02:36.001Z,18.67
2023-02-11T08:03:38.483Z,17.80
2023-02-11T08:04:41.377Z,16.88
2023-02-11T08:05:43.838Z,17.50
2023-02-11T08:06:46.692Z,16.42
2023-02-11T08:07:51.317Z,16.85
2023-02-11T08:08:54.190Z,17.38
2023-02-11T08:09:55.961Z,16.38
2023-02-11T08:10:59.021Z,17.30
2023-02-11T08:12:01.780Z,16.95
2023-02-11T08:13:03.832Z,16.40
2023-02-11T08:14:06.940Z,15.85
2023-02-11T08:15:09.470Z,15.88
2023-02-11T08:16:19.363Z,16.95
2023-02-11T08:17:42.390Z,16.20
2023-02-11T08:18:45.188Z,15.98
2023-02-11T08:19:47.941Z,15.43
2023-02-11T08:20:50.009Z,16.15
2023-02-11T08:21:56.279Z,16.23
2023-02-11T08:22:58.053Z,15.57
2023-02-11T08:24:02.371Z,16.75
2023-02-11T08:25:04.715Z,16.05
2023-02-11T08:26:09.410Z,16.65
2023-02-11T08:27:12.134Z,15.10
2023-02-11T08:28:14.073Z,16.20
2023-02-11T08:29:18.322Z,16.50
2023-02-11T08:30:20.124Z,15.25
2023-02-11T08:31:24.810Z,16.40
2023-02-11T08:32:27.639Z,16.80
2023-02-11T08:33:31.707Z,15.45
2023-02-11T08:34:34.621Z,14.77
2023-02-11T08:35:39.825Z,16.70
2023-02-11T08:36:42.976Z,15.07
2023-02-11T08:37:46.110Z,15.80
2023-02-11T08:38:47.900Z,15.02
2023-02-11T08:39:50.975Z,16.13
2023-02-11T08:40:52.943Z,15.93
2023-02-11T08:41:56.666Z,14.95
2023-02-11T08:42:59.460Z,15.32
2023-02-11T08:44:01.867Z,14.82
2023-02-11T08:45:05.060Z,15.82
2023-02-11T08:46:06.897Z,15.32
2023-02-11T08:47:09.812Z,14.68
2023-02-11T08:48:11.642Z,15.50
2023-02-11T08:49:15.960Z,15.02
2023-02-11T08:50:18.339Z,17.58
2023-02-11T08:51:23.873Z,14.85
2023-02-11T08:52:26.580Z,15.70
2023-02-11T08:53:28.397Z,15.82
2023-02-11T08:54:31.306Z,16.92
2023-02-11T08:55:33.128Z,16.08
2023-02-11T08:56:36.320Z,15.85
2023-02-11T08:57:38.175Z,15.32
2023-02-11T08:58:41.198Z,16.08
2023-02-11T08:59:44.031Z,16.23
2023-02-11T09:00:46.349Z,14.50
2023-02-11T09:01:49.212Z,15.38
2023-02-11T09:02:51.339Z,15.35
2023-02-11T09:03:54.770Z,15.63
2023-02-11T09:04:58.836Z,16.05
2023-02-11T09:06:00.807Z,16.05
2023-02-11T09:07:03.549Z,16.75
2023-02-11T09:08:05.711Z,16.10
2023-02-11T09:09:11.977Z,14.85
2023-02-11T09:10:13.736Z,15.75
2023-02-11T09:11:17.194Z,15.52
2023-02-11T09:12:20.436Z,15.65
2023-02-11T09:13:22.242Z,15.57
2023-02-11T09:14:25.725Z,15.00
2023-02-11T09:15:28.590Z,15.35
2023-02-11T09:16:32.621Z,15.18
2023-02-11T09:17:35.464Z,15.23
2023-02-11T09:18:37.301Z,15.15
2023-02-11T09:19:40.084Z,14.38
2023-02-11T09:20:44.182Z,16.85
2023-02-11T09:21:47.563Z,15.90
2023-02-11T09:22:50.715Z,15.00
2023-02-11T09:23:53.572Z,15.40
2023-02-11T09:24:56.621Z,16.40
2023-02-11T09:25:58.369Z,15.30
2023-02-11T09:27:01.130Z,16.05
2023-02-11T09:28:03.111Z,15.75
2023-02-11T09:29:06.949Z,15.45
2023-02-11T09:30:10.778Z,15.48
2023-02-11T09:31:15.526Z,17.25
2023-02-11T09:32:18.469Z,16.48
2023-02-11T09:33:20.310Z,16.52
2023-02-11T09:34:23.147Z,16.17
2023-02-11T09:35:24.932Z,16.38
2023-02-11T09:36:30.697Z,16.35
2023-02-11T09:37:32.572Z,16.20
2023-02-11T09:38:35.448Z,16.40
2023-02-11T09:39:38.209Z,15.77
2023-02-11T09:40:42.751Z,16.05
2023-02-11T09:42:11.560Z,17.77
2023-02-11T09:43:17.442Z,16.73
2023-02-11T09:44:21.678Z,16.33
2023-02-11T09:45:26.497Z,15.75
2023-02-11T09:46:31.769Z,16.30
2023-02-11T09:47:36.358Z,16.75
2023-02-11T09:48:40.667Z,15.90
2023-02-11T09:49:46.628Z,17.75
2023-02-11T09:50:52.882Z,16.55
2023-02-11T09:51:59.157Z,16.88
2023-02-11T09:53:04.462Z,16.77
2023-02-11T09:54:12.178Z,16.27
2023-02-11T09:55:20.205Z,16.35
2023-02-11T09:56:22.881Z,16.42
2023-02-11T09:57:29.349Z,16.42
2023-02-11T09:58:33.665Z,17.40
2023-02-11T09:59:36.983Z,17.00
2023-02-11T10:00:44.590Z,18.08
2023-02-11T10:01:49.552Z,16.70
2023-02-11T10:03:22.666Z,16.88
2023-02-11T10:04:38.575Z,16.45
2023-02-11T10:05:52.469Z,15.73
2023-02-11T10:06:57.879Z,16.13
2023-02-11T10:08:09.677Z,15.85
2023-02-11T10:09:30.131Z,15.38
2023-02-11T10:10:43.343Z,16.48
2023-02-11T10:11:53.700Z,15.65
2023-02-11T10:13:18.170Z,15.30
2023-02-11T10:14:32.592Z,15.40
2023-02-11T10:15:44.803Z,16.17
2023-02-11T10:16:58.450Z,15.90
2023-02-11T10:18:14.468Z,15.88
2023-02-11T10:19:41.707Z,16.20
2023-02-11T10:20:50.161Z,15.35
2023-02-11T10:22:01.082Z,16.88
2023-02-11T10:23:11.196Z,15.07
2023-02-11T10:24:14.779Z,16.63
2023-02-11T10:25:23.981Z,15.82
2023-02-11T10:26:37.084Z,16.17
2023-02-11T10:27:40.130Z,16.40
2023-02-11T10:28:45.868Z,16.23
2023-02-11T10:29:51.140Z,16.90
2023-02-11T10:30:58.291Z,15.10
2023-02-11T10:32:02.360Z,16.73
2023-02-11T10:33:11.907Z,15.57
2023-02-11T10:34:15.743Z,17.40
2023-02-11T10:35:22.305Z,17.45
2023-02-11T10:36:28.048Z,15.77
2023-02-11T10:37:32.535Z,16.50
2023-02-11T10:38:36.384Z,15.73
2023-02-11T10:39:39.886Z,15.88
2023-02-11T10:40:42.742Z,15.45
2023-02-11T10:41:46.394Z,16.35
2023-02-11T10:42:53.581Z,16.73
2023-02-11T10:43:57.165Z,16.42
2023-02-11T10:45:02.110Z,17.05
2023-02-11T10:46:06.035Z,16.95
2023-02-11T10:47:13.036Z,16.63
2023-02-11T10:48:38.411Z,15.80
2023-02-11T10:49:41.489Z,16.63
2023-02-11T10:50:44.210Z,17.40
2023-02-11T10:51:46.934Z,15.85
2023-02-11T10:52:50.531Z,17.15
2023-02-11T10:54:14.326Z,16.10
2023-02-11T10:55:20.755Z,15.90
2023-02-11T10:56:26.647Z,15.32
2023-02-11T10:57:31.553Z,17.15
2023-02-11T10:58:41.660Z,16.15
2023-02-11T10:59:43.598Z,15.90
2023-02-11T11:00:53.781Z,16.77
2023-02-11T11:01:59.028Z,16.38
2023-02-11T11:03:02.937Z,17.85
2023-02-11T11:04:05.892Z,16.42
2023-02-11T11:05:16.589Z,15.10
2023-02-11T11:06:30.692Z,17.45
2023-02-11T11:07:33.717Z,17.23
2023-02-11T11:08:43.917Z,17.30
2023-02-11T11:09:50.065Z,16.98
2023-02-11T11:11:05.167Z,15.82
2023-02-11T11:12:10.407Z,15.57
2023-02-11T11:13:32.144Z,16.05
2023-02-11T11:14:33.970Z,16.25
2023-02-11T11:15:36.738Z,15.65
2023-02-11T11:16:39.094Z,16.90
2023-02-11T11:17:41.876Z,17.20
2023-02-11T11:18:45.115Z,16.80
2023-02-11T11:19:47.954Z,16.85
2023-02-11T11:20:56.807Z,15.50
2023-02-11T11:22:00.343Z,16.38
2023-02-11T11:23:12.347Z,16.48
2023-02-11T11:24:19.841Z,16.38
2023-02-11T11:25:26.221Z,16.35
2023-02-11T11:26:31.156Z,14.85
2023-02-11T11:27:33.282Z,16.92
2023-02-11T11:28:38.825Z,14.73
2023-02-11T11:29:46.018Z,17.08
2023-02-11T11:30:47.954Z,17.40
2023-02-11T11:31:52.910Z,16.75
2023-02-11T11:32:55.068Z,15.25
2023-02-11T11:33:59.601Z,14.95
2023-02-11T11:35:03.875Z,16.70
2023-02-11T11:36:09.781Z,16.52
2023-02-11T11:37:14.348Z,17.25
2023-02-11T11:38:16.313Z,15.40
2023-02-11T11:39:23.941Z,16.63
2023-02-11T11:40:27.208Z,17.48
2023-02-11T11:41:31.635Z,16.48
2023-02-11T11:42:36.615Z,17.75
2023-02-11T11:43:38.537Z,18.65
2023-02-11T11:44:41.402Z,16.77
2023-02-11T11:45:54.364Z,16.92
2023-02-11T11:47:13.168Z,16.15
2023-02-11T11:48:21.912Z,17.50
2023-02-11T11:49:29.849Z,18.85
2023-02-11T11:50:34.532Z,16.58
2023-02-11T11:51:39.168Z,16.88
2023-02-11T11:52:47.069Z,17.85
2023-02-11T11:53:54.641Z,17.52
2023-02-11T11:55:03.244Z,16.90
2023-02-11T11:56:07.952Z,17.02
2023-02-11T11:57:13.609Z,17.00
2023-02-11T11:58:17.583Z,16.73
2023-02-11T11:59:19.443Z,17.63
2023-02-11T12:00:28.072Z,17.05
2023-02-11T12:01:38.423Z,17.10
2023-02-11T12:03:10.637Z,26.55
2023-02-11T12:05:01.462Z,17.23
2023-02-11T12:06:12.926Z,17.73
2023-02-11T12:07:25.960Z,17.25
2023-02-11T12:08:34.629Z,17.23
2023-02-11T12:09:44.201Z,16.52
2023-02-11T12:11:09.147Z,16.17
2023-02-11T12:12:26.954Z,16.27
2023-02-11T12:13:40.115Z,15.95
2023-02-11T12:14:49.655Z,17.33
2023-02-11T12:15:58.639Z,17.33
2023-02-11T12:17:04.490Z,17.27
2023-02-11T12:18:17.879Z,17.88
2023-02-11T12:19:56.542Z,16.58
2023-02-11T12:21:23.670Z,17.58
2023-02-11T12:22:35.917Z,16.42
2023-02-11T12:23:47.257Z,16.48
2023-02-11T12:25:09.609Z,16.40
2023-02-11T12:26:17.644Z,16.33
2023-02-11T12:27:27.380Z,17.23
2023-02-11T12:28:38.383Z,17.83
2023-02-11T12:29:49.919Z,16.55
2023-02-11T12:31:03.938Z,19.17
2023-02-11T12:32:19.010Z,17.50
2023-02-11T12:33:30.433Z,17.65
2023-02-11T12:34:57.776Z,18.05
2023-02-11T12:36:03.469Z,18.35
2023-02-11T12:37:15.520Z,16.98
2023-02-11T12:38:33.810Z,17.27
2023-02-11T12:39:45.325Z,17.13
2023-02-11T12:40:55.555Z,16.73
2023-02-11T12:42:30.056Z,17.67
2023-02-11T12:43:36.711Z,17.92
2023-02-11T12:44:48.681Z,18.67
2023-02-11T12:46:03.818Z,18.70
2023-02-11T12:47:14.357Z,19.85
2023-02-11T12:48:28.724Z,19.58
2023-02-11T12:49:56.110Z,18.75
2023-02-11T12:51:04.761Z,19.40
2023-02-11T12:52:16.140Z,19.85
2023-02-11T12:53:32.035Z,21.13
2023-02-11T12:54:39.964Z,22.15
2023-02-11T12:55:45.325Z,19.88
2023-02-11T12:56:53.379Z,19.15
2023-02-11T12:57:59.510Z,20.52
2023-02-11T12:59:02.181Z,21.25
2023-02-11T13:00:08.991Z,19.17
2023-02-11T13:01:18.457Z,21.38
2023-02-11T13:02:29.322Z,21.58
2023-02-11T13:03:36.897Z,21.40
2023-02-11T13:04:41.595Z,21.52
2023-02-11T13:05:47.321Z,22.50
2023-02-11T13:06:53.480Z,19.40
2023-02-11T13:08:00.880Z,22.27
2023-02-11T13:09:06.209Z,22.90
2023-02-11T13:10:21.345Z,20.52
2023-02-11T13:11:27.243Z,20.38
2023-02-11T13:12:49.145Z,27.13
2023-02-11T13:13:56.725Z,23.05
2023-02-11T13:15:03.783Z,21.10
2023-02-11T13:16:09.406Z,20.52
2023-02-11T13:17:17.257Z,21.38
2023-02-11T13:18:48.366Z,21.33
2023-02-11T13:19:53.851Z,22.95
2023-02-11T13:21:00.870Z,23.80
2023-02-11T13:22:06.315Z,20.10
2023-02-11T13:23:14.985Z,28.00
2023-02-11T13:24:24.262Z,22.30
2023-02-11T13:25:31.797Z,24.65
2023-02-11T13:26:40.544Z,21.67
2023-02-11T13:27:50.460Z,20.48
2023-02-11T13:28:57.076Z,21.20
2023-02-11T13:30:14.748Z,21.38
2023-02-11T13:31:20.685Z,23.10
2023-02-11T13:32:22.590Z,22.30
2023-02-11T13:33:33.700Z,19.30
2023-02-11T13:34:57.578Z,21.92
2023-02-11T13:36:20.925Z,22.67
2023-02-11T13:37:26.370Z,23.00
2023-02-11T13:38:30.688Z,21.33
2023-02-11T13:39:33.886Z,22.58
2023-02-11T13:40:37.234Z,21.17
2023-02-11T13:41:42.132Z,21.77
2023-02-11T13:42:50.648Z,22.30
2023-02-11T13:44:03.413Z,22.67
2023-02-11T13:45:18.810Z,22.35
2023-02-11T13:46:21.031Z,22.95
2023-02-11T13:47:28.404Z,24.90
2023-02-11T13:48:32.216Z,22.50
2023-02-11T13:49:41.193Z,24.35
2023-02-11T13:50:48.001Z,22.90
2023-02-11T13:51:51.422Z,23.90
2023-02-11T13:52:58.895Z,25.20
2023-02-11T13:54:01.006Z,23.75
2023-02-11T13:55:09.268Z,23.17
2023-02-11T13:56:13.146Z,23.92
2023-02-11T13:57:38.634Z,22.90
2023-02-11T13:58:48.957Z,23.40
2023-02-11T13:59:54.195Z,23.10
2023-02-11T14:00:58.590Z,22.95
2023-02-11T14:02:38.050Z,22.67
2023-02-11T14:03:58.426Z,23.67
2023-02-11T14:05:35.505Z,22.90
2023-02-11T14:06:55.980Z,22.05
2023-02-11T14:08:32.819Z,23.58
2023-02-11T14:09:39.536Z,22.38